sensor_id;sensor_type;location;lat;lon;timestamp;pressure;altitude;pressure_sealevel;temperature;humidity
35892;BME280;21993;42.672;23.296;2023-04-01T00:00:28;93837.25;;;14.74;52.82
35892;BME280;21993;42.672;23.296;2023-04-01T00:02:54;93836.06;;;14.76;52.28
35892;BME280;21993;42.672;23.296;2023-04-01T00:05:20;93839.06;;;14.73;52.16
35892;BME280;21993;42.672;23.296;2023-04-01T00:07:46;93830.69;;;14.70;52.72
35892;BME280;21993;42.672;23.296;2023-04-01T00:10:13;93837.53;;;14.64;52.60
35892;BME280;21993;42.672;23.296;2023-04-01T00:12:38;93838.78;;;14.68;52.59
35892;BME280;21993;42.672;23.296;2023-04-01T00:15:06;93836.16;;;14.68;52.27
35892;BME280;21993;42.672;23.296;2023-04-01T00:17:32;93834.31;;;14.54;52.41
35892;BME280;21993;42.672;23.296;2023-04-01T00:19:58;93841.06;;;14.56;52.57
35892;BME280;21993;42.672;23.296;2023-04-01T00:22:24;93844.72;;;14.55;52.08
35892;BME280;21993;42.672;23.296;2023-04-01T00:24:51;93837.50;;;14.49;52.38
35892;BME280;21993;42.672;23.296;2023-04-01T00:27:17;93846.31;;;14.42;52.58
35892;BME280;21993;42.672;23.296;2023-04-01T00:29:43;93838.91;;;14.37;52.22
35892;BME280;21993;42.672;23.296;2023-04-01T00:32:09;93838.00;;;14.45;52.11
35892;BME280;21993;42.672;23.296;2023-04-01T00:34:35;93845.19;;;14.36;52.46
35892;BME280;21993;42.672;23.296;2023-04-01T00:37:00;93843.25;;;14.15;52.98
35892;BME280;21993;42.672;23.296;2023-04-01T00:39:29;93842.94;;;13.72;55.14
35892;BME280;21993;42.672;23.296;2023-04-01T00:41:54;93827.88;;;13.81;54.56
35892;BME280;21993;42.672;23.296;2023-04-01T00:44:30;93827.25;;;13.94;54.68
35892;BME280;21993;42.672;23.296;2023-04-01T00:46:57;93818.31;;;13.80;55.90
35892;BME280;21993;42.672;23.296;2023-04-01T00:49:26;93825.28;;;13.96;55.60
35892;BME280;21993;42.672;23.296;2023-04-01T00:51:55;93817.53;;;13.94;55.53
35892;BME280;21993;42.672;23.296;2023-04-01T00:54:24;93820.78;;;13.82;55.50
35892;BME280;21993;42.672;23.296;2023-04-01T00:59:25;93809.84;;;13.85;55.49
35892;BME280;21993;42.672;23.296;2023-04-01T01:01:52;93808.72;;;13.64;54.94
35892;BME280;21993;42.672;23.296;2023-04-01T01:04:26;93796.53;;;13.40;55.90
35892;BME280;21993;42.672;23.296;2023-04-01T01:07:07;93788.44;;;13.42;55.73
35892;BME280;21993;42.672;23.296;2023-04-01T01:10:30;93779.00;;;13.16;55.86
35892;BME280;21993;42.672;23.296;2023-04-01T01:13:40;93785.41;;;13.30;55.77
35892;BME280;21993;42.672;23.296;2023-04-01T01:26:46;93760.06;;;13.44;55.34
35892;BME280;21993;42.672;23.296;2023-04-01T01:32:43;93752.66;;;13.16;55.48
35892;BME280;21993;42.672;23.296;2023-04-01T01:38:09;93749.25;;;13.39;55.11
35892;BME280;21993;42.672;23.296;2023-04-01T01:40:36;93744.25;;;13.44;54.71
35892;BME280;21993;42.672;23.296;2023-04-01T01:43:06;93747.38;;;13.47;53.99
35892;BME280;21993;42.672;23.296;2023-04-01T01:45:36;93750.19;;;13.46;54.21
35892;BME280;21993;42.672;23.296;2023-04-01T01:48:04;93756.28;;;13.15;55.23
35892;BME280;21993;42.672;23.296;2023-04-01T01:50:32;93752.34;;;13.11;55.36
35892;BME280;21993;42.672;23.296;2023-04-01T01:53:07;93746.56;;;13.16;54.77
35892;BME280;21993;42.672;23.296;2023-04-01T01:55:36;93734.75;;;13.35;54.40
35892;BME280;21993;42.672;23.296;2023-04-01T01:58:07;93738.66;;;13.47;54.02
35892;BME280;21993;42.672;23.296;2023-04-01T02:00:35;93740.09;;;13.49;53.55
35892;BME280;21993;42.672;23.296;2023-04-01T02:03:01;93740.66;;;13.60;53.09
35892;BME280;21993;42.672;23.296;2023-04-01T02:05:28;93733.75;;;13.59;53.87
35892;BME280;21993;42.672;23.296;2023-04-01T02:08:01;93730.66;;;13.55;53.70
35892;BME280;21993;42.672;23.296;2023-04-01T02:10:31;93722.22;;;13.60;53.35
35892;BME280;21993;42.672;23.296;2023-04-01T02:13:01;93723.84;;;13.61;53.55
35892;BME280;21993;42.672;23.296;2023-04-01T02:15:32;93718.56;;;13.61;52.55
35892;BME280;21993;42.672;23.296;2023-04-01T02:18:02;93706.31;;;13.68;52.39
35892;BME280;21993;42.672;23.296;2023-04-01T02:20:29;93707.75;;;13.70;52.59
35892;BME280;21993;42.672;23.296;2023-04-01T02:22:56;93701.69;;;13.85;52.33
35892;BME280;21993;42.672;23.296;2023-04-01T02:25:29;93712.88;;;13.87;52.63
35892;BME280;21993;42.672;23.296;2023-04-01T02:27:57;93713.38;;;13.90;52.21
35892;BME280;21993;42.672;23.296;2023-04-01T02:30:25;93727.81;;;13.94;52.17
35892;BME280;21993;42.672;23.296;2023-04-01T02:32:52;93725.56;;;13.91;52.16
35892;BME280;21993;42.672;23.296;2023-04-01T02:35:18;93719.09;;;13.94;52.52
35892;BME280;21993;42.672;23.296;2023-04-01T02:37:45;93720.91;;;13.93;52.56
35892;BME280;21993;42.672;23.296;2023-04-01T02:40:14;93712.00;;;13.79;53.23
35892;BME280;21993;42.672;23.296;2023-04-01T02:42:40;93713.25;;;13.84;52.65
35892;BME280;21993;42.672;23.296;2023-04-01T02:45:06;93726.25;;;13.85;52.68
35892;BME280;21993;42.672;23.296;2023-04-01T02:47:32;93728.81;;;13.93;52.38
35892;BME280;21993;42.672;23.296;2023-04-01T02:49:57;93729.00;;;13.92;52.25
35892;BME280;21993;42.672;23.296;2023-04-01T02:52:27;93729.19;;;13.90;52.54
35892;BME280;21993;42.672;23.296;2023-04-01T02:54:53;93739.09;;;14.03;52.06
35892;BME280;21993;42.672;23.296;2023-04-01T02:57:19;93727.72;;;14.02;52.24
35892;BME280;21993;42.672;23.296;2023-04-01T02:59:45;93744.31;;;13.96;52.75
35892;BME280;21993;42.672;23.296;2023-04-01T03:02:10;93750.19;;;13.84;52.93
35892;BME280;21993;42.672;23.296;2023-04-01T03:04:36;93742.47;;;13.82;53.14
35892;BME280;21993;42.672;23.296;2023-04-01T03:07:01;93749.22;;;13.99;52.92
35892;BME280;21993;42.672;23.296;2023-04-01T03:09:27;93756.69;;;13.96;52.65
35892;BME280;21993;42.672;23.296;2023-04-01T03:11:53;93756.22;;;13.92;53.55
35892;BME280;21993;42.672;23.296;2023-04-01T03:14:19;93762.19;;;13.86;53.16
35892;BME280;21993;42.672;23.296;2023-04-01T03:16:44;93764.59;;;13.96;53.22
35892;BME280;21993;42.672;23.296;2023-04-01T03:19:10;93741.50;;;13.98;53.29
35892;BME280;21993;42.672;23.296;2023-04-01T03:21:35;93749.03;;;14.01;54.17
35892;BME280;21993;42.672;23.296;2023-04-01T03:24:01;93756.31;;;13.99;55.21
35892;BME280;21993;42.672;23.296;2023-04-01T03:26:26;93759.84;;;13.91;55.19
35892;BME280;21993;42.672;23.296;2023-04-01T03:28:52;93771.66;;;13.80;55.78
35892;BME280;21993;42.672;23.296;2023-04-01T03:31:18;93765.91;;;13.77;56.08
35892;BME280;21993;42.672;23.296;2023-04-01T03:33:43;93765.00;;;13.85;55.55
35892;BME280;21993;42.672;23.296;2023-04-01T03:36:09;93752.94;;;13.90;56.37
35892;BME280;21993;42.672;23.296;2023-04-01T03:38:36;93756.09;;;13.86;56.59
35892;BME280;21993;42.672;23.296;2023-04-01T03:41:02;93754.47;;;13.85;57.36
35892;BME280;21993;42.672;23.296;2023-04-01T03:43:27;93727.44;;;13.83;57.25
35892;BME280;21993;42.672;23.296;2023-04-01T03:45:53;93716.34;;;13.72;57.34
35892;BME280;21993;42.672;23.296;2023-04-01T03:48:20;93708.84;;;13.61;57.08
35892;BME280;21993;42.672;23.296;2023-04-01T03:50:46;93688.09;;;13.58;56.47
35892;BME280;21993;42.672;23.296;2023-04-01T03:53:12;93671.47;;;13.58;56.73
35892;BME280;21993;42.672;23.296;2023-04-01T03:55:37;93667.53;;;13.53;55.98
35892;BME280;21993;42.672;23.296;2023-04-01T03:58:05;93669.47;;;13.60;56.21
35892;BME280;21993;42.672;23.296;2023-04-01T04:00:31;93651.94;;;13.67;56.66
35892;BME280;21993;42.672;23.296;2023-04-01T04:02:57;93646.56;;;13.60;56.91
35892;BME280;21993;42.672;23.296;2023-04-01T04:05:24;93654.88;;;13.34;57.73
35892;BME280;21993;42.672;23.296;2023-04-01T04:07:50;93646.94;;;13.57;56.65
35892;BME280;21993;42.672;23.296;2023-04-01T04:10:16;93636.47;;;13.64;57.10
35892;BME280;21993;42.672;23.296;2023-04-01T04:12:41;93632.38;;;13.61;57.33
35892;BME280;21993;42.672;23.296;2023-04-01T04:15:08;93622.47;;;13.63;56.56
35892;BME280;21993;42.672;23.296;2023-04-01T04:17:34;93622.22;;;13.73;57.38
35892;BME280;21993;42.672;23.296;2023-04-01T04:19:59;93614.09;;;13.74;58.09
35892;BME280;21993;42.672;23.296;2023-04-01T04:22:25;93616.19;;;13.64;58.05
35892;BME280;21993;42.672;23.296;2023-04-01T04:24:50;93623.75;;;13.67;57.77
35892;BME280;21993;42.672;23.296;2023-04-01T04:27:15;93617.09;;;13.57;56.85
35892;BME280;21993;42.672;23.296;2023-04-01T04:29:41;93612.38;;;13.67;56.41
35892;BME280;21993;42.672;23.296;2023-04-01T04:32:06;93615.00;;;13.67;56.35
35892;BME280;21993;42.672;23.296;2023-04-01T04:34:32;93612.19;;;13.68;56.18
35892;BME280;21993;42.672;23.296;2023-04-01T04:36:58;93611.56;;;13.66;56.30
35892;BME280;21993;42.672;23.296;2023-04-01T04:39:23;93623.75;;;13.67;55.91
35892;BME280;21993;42.672;23.296;2023-04-01T04:41:49;93616.72;;;13.60;56.18
35892;BME280;21993;42.672;23.296;2023-04-01T04:44:14;93592.38;;;13.58;56.36
35892;BME280;21993;42.672;23.296;2023-04-01T04:46:40;93573.47;;;13.54;55.97
35892;BME280;21993;42.672;23.296;2023-04-01T04:49:06;93587.28;;;13.56;55.75
35892;BME280;21993;42.672;23.296;2023-04-01T04:51:31;93587.47;;;13.55;55.79
35892;BME280;21993;42.672;23.296;2023-04-01T04:53:59;93602.91;;;13.58;55.85
35892;BME280;21993;42.672;23.296;2023-04-01T04:56:25;93589.53;;;13.59;55.42
35892;BME280;21993;42.672;23.296;2023-04-01T04:58:51;93581.91;;;13.64;55.34
35892;BME280;21993;42.672;23.296;2023-04-01T05:01:17;93590.56;;;13.58;55.65
35892;BME280;21993;42.672;23.296;2023-04-01T05:03:43;93585.25;;;13.43;55.44
35892;BME280;21993;42.672;23.296;2023-04-01T05:06:11;93574.19;;;13.48;54.78
35892;BME280;21993;42.672;23.296;2023-04-01T05:08:37;93562.06;;;13.53;55.08
35892;BME280;21993;42.672;23.296;2023-04-01T05:11:06;93564.97;;;13.44;55.29
35892;BME280;21993;42.672;23.296;2023-04-01T05:13:35;93582.34;;;13.23;55.55
35892;BME280;21993;42.672;23.296;2023-04-01T05:16:00;93552.41;;;13.16;55.54
35892;BME280;21993;42.672;23.296;2023-04-01T05:18:25;93544.25;;;13.26;55.25
35892;BME280;21993;42.672;23.296;2023-04-01T05:20:53;93557.25;;;13.28;54.84
35892;BME280;21993;42.672;23.296;2023-04-01T05:23:20;93527.75;;;13.09;54.92
35892;BME280;21993;42.672;23.296;2023-04-01T05:25:47;93534.72;;;13.25;54.96
35892;BME280;21993;42.672;23.296;2023-04-01T05:28:14;93549.09;;;13.22;55.08
35892;BME280;21993;42.672;23.296;2023-04-01T05:30:41;93557.97;;;12.84;55.86
35892;BME280;21993;42.672;23.296;2023-04-01T05:33:07;93526.22;;;13.00;55.97
35892;BME280;21993;42.672;23.296;2023-04-01T05:35:32;93547.84;;;13.10;55.66
35892;BME280;21993;42.672;23.296;2023-04-01T05:37:58;93536.13;;;13.13;55.19
35892;BME280;21993;42.672;23.296;2023-04-01T05:40:23;93533.75;;;13.18;54.57
35892;BME280;21993;42.672;23.296;2023-04-01T05:42:49;93540.81;;;13.26;54.23
35892;BME280;21993;42.672;23.296;2023-04-01T05:45:14;93528.56;;;13.47;53.29
35892;BME280;21993;42.672;23.296;2023-04-01T05:47:41;93544.56;;;13.46;53.68
35892;BME280;21993;42.672;23.296;2023-04-01T05:50:08;93529.38;;;13.48;53.06
35892;BME280;21993;42.672;23.296;2023-04-01T05:52:34;93537.72;;;13.66;53.37
35892;BME280;21993;42.672;23.296;2023-04-01T05:54:59;93526.34;;;13.80;52.09
35892;BME280;21993;42.672;23.296;2023-04-01T05:57:25;93514.66;;;14.04;51.31
35892;BME280;21993;42.672;23.296;2023-04-01T05:59:51;93516.28;;;14.05;51.31
35892;BME280;21993;42.672;23.296;2023-04-01T06:02:17;93527.91;;;14.11;51.03
35892;BME280;21993;42.672;23.296;2023-04-01T06:04:44;93507.09;;;14.01;51.56
35892;BME280;21993;42.672;23.296;2023-04-01T06:07:13;93526.44;;;14.23;51.35
35892;BME280;21993;42.672;23.296;2023-04-01T06:09:40;93541.84;;;14.05;51.51
35892;BME280;21993;42.672;23.296;2023-04-01T06:15:20;93514.75;;;14.54;50.64
35892;BME280;21993;42.672;23.296;2023-04-01T06:17:56;93510.09;;;14.77;49.33
35892;BME280;21993;42.672;23.296;2023-04-01T06:20:55;93523.91;;;14.73;49.35
35892;BME280;21993;42.672;23.296;2023-04-01T06:26:20;93522.16;;;14.86;48.53
35892;BME280;21993;42.672;23.296;2023-04-01T06:28:53;93528.47;;;14.85;48.56
35892;BME280;21993;42.672;23.296;2023-04-01T06:42:25;93473.25;;;15.25;46.73
35892;BME280;21993;42.672;23.296;2023-04-01T06:56:08;93473.59;;;14.87;48.02
35892;BME280;21993;42.672;23.296;2023-04-01T06:58:42;93455.03;;;15.09;47.57
35892;BME280;21993;42.672;23.296;2023-04-01T07:01:34;93462.41;;;15.13;47.94
35892;BME280;21993;42.672;23.296;2023-04-01T07:04:09;93470.84;;;15.30;47.94
35892;BME280;21993;42.672;23.296;2023-04-01T07:06:40;93471.06;;;15.35;48.04
35892;BME280;21993;42.672;23.296;2023-04-01T07:09:13;93477.56;;;15.33;48.44
35892;BME280;21993;42.672;23.296;2023-04-01T07:11:40;93470.03;;;15.36;48.66
35892;BME280;21993;42.672;23.296;2023-04-01T07:14:32;93473.09;;;15.33;48.69
35892;BME280;21993;42.672;23.296;2023-04-01T07:17:12;93444.91;;;15.47;48.61
35892;BME280;21993;42.672;23.296;2023-04-01T07:22:44;93472.28;;;15.33;49.75
35892;BME280;21993;42.672;23.296;2023-04-01T07:25:16;93473.44;;;14.96;50.53
35892;BME280;21993;42.672;23.296;2023-04-01T07:27:43;93488.03;;;15.19;49.87
35892;BME280;21993;42.672;23.296;2023-04-01T07:30:17;93462.81;;;15.17;49.77
35892;BME280;21993;42.672;23.296;2023-04-01T07:35:27;93488.50;;;15.30;50.16
35892;BME280;21993;42.672;23.296;2023-04-01T07:40:53;93485.28;;;15.34;50.41
35892;BME280;21993;42.672;23.296;2023-04-01T07:46:17;93468.25;;;15.43;50.83
35892;BME280;21993;42.672;23.296;2023-04-01T07:54:26;93452.16;;;15.73;50.20
35892;BME280;21993;42.672;23.296;2023-04-01T08:10:54;93442.78;;;15.77;50.63
35892;BME280;21993;42.672;23.296;2023-04-01T08:16:17;93433.16;;;15.63;50.24
35892;BME280;21993;42.672;23.296;2023-04-01T08:21:45;93402.53;;;15.82;50.18
35892;BME280;21993;42.672;23.296;2023-04-01T08:24:41;93403.97;;;16.04;49.62
35892;BME280;21993;42.672;23.296;2023-04-01T08:30:38;93407.44;;;16.04;49.14
35892;BME280;21993;42.672;23.296;2023-04-01T08:33:43;93388.50;;;16.01;49.87
35892;BME280;21993;42.672;23.296;2023-04-01T08:36:03;93353.50;;;16.12;49.68
35892;BME280;21993;42.672;23.296;2023-04-01T08:57:06;93334.84;;;17.18;47.45
35892;BME280;21993;42.672;23.296;2023-04-01T08:59:50;93333.91;;;17.44;47.24
35892;BME280;21993;42.672;23.296;2023-04-01T09:17:00;93321.63;;;17.94;44.64
35892;BME280;21993;42.672;23.296;2023-04-01T09:22:17;93324.28;;;17.94;43.22
35892;BME280;21993;42.672;23.296;2023-04-01T09:27:26;93317.34;;;18.18;43.11
35892;BME280;21993;42.672;23.296;2023-04-01T09:35:39;93302.72;;;18.34;42.66
35892;BME280;21993;42.672;23.296;2023-04-01T09:38:30;93296.16;;;18.37;42.76
35892;BME280;21993;42.672;23.296;2023-04-01T09:40:58;93279.13;;;18.44;41.82
35892;BME280;21993;42.672;23.296;2023-04-01T09:46:16;93271.91;;;18.51;41.20
35892;BME280;21993;42.672;23.296;2023-04-01T09:51:52;93254.31;;;18.94;40.09
35892;BME280;21993;42.672;23.296;2023-04-01T10:36:54;93196.72;;;19.89;38.11
35892;BME280;21993;42.672;23.296;2023-04-01T10:39:38;93197.75;;;19.88;38.41
35892;BME280;21993;42.672;23.296;2023-04-01T10:56:15;93171.94;;;19.89;38.40
35892;BME280;21993;42.672;23.296;2023-04-01T11:13:42;93155.13;;;19.88;38.14
35892;BME280;21993;42.672;23.296;2023-04-01T11:33:43;93241.13;;;18.99;40.15
35892;BME280;21993;42.672;23.296;2023-04-01T11:36:36;93224.94;;;19.19;40.73
35892;BME280;21993;42.672;23.296;2023-04-01T11:41:45;93297.72;;;19.06;43.21
35892;BME280;21993;42.672;23.296;2023-04-01T11:44:39;93307.91;;;18.91;45.45
35892;BME280;21993;42.672;23.296;2023-04-01T11:47:22;93320.84;;;18.69;47.26
35892;BME280;21993;42.672;23.296;2023-04-01T11:50:08;93379.31;;;18.12;51.74
35892;BME280;21993;42.672;23.296;2023-04-01T12:06:02;93423.03;;;16.74;60.60
35892;BME280;21993;42.672;23.296;2023-04-01T12:08:57;93413.19;;;16.35;61.94
35892;BME280;21993;42.672;23.296;2023-04-01T12:11:37;93415.41;;;16.18;62.86
35892;BME280;21993;42.672;23.296;2023-04-01T12:19:56;93407.44;;;16.04;66.31
35892;BME280;21993;42.672;23.296;2023-04-01T12:25:06;93402.78;;;16.07;68.58
35892;BME280;21993;42.672;23.296;2023-04-01T12:27:38;93423.75;;;16.08;67.91
35892;BME280;21993;42.672;23.296;2023-04-01T12:30:35;93423.38;;;16.24;67.17
35892;BME280;21993;42.672;23.296;2023-04-01T12:33:45;93419.72;;;16.32;66.21
35892;BME280;21993;42.672;23.296;2023-04-01T12:36:52;93428.28;;;16.34;65.00
35892;BME280;21993;42.672;23.296;2023-04-01T12:39:49;93421.34;;;16.33;64.11
35892;BME280;21993;42.672;23.296;2023-04-01T12:45:22;93411.16;;;16.17;63.21
35892;BME280;21993;42.672;23.296;2023-04-01T12:51:18;93413.56;;;15.98;64.03
35892;BME280;21993;42.672;23.296;2023-04-01T12:54:17;93412.69;;;15.85;62.21
35892;BME280;21993;42.672;23.296;2023-04-01T13:13:48;93346.03;;;15.00;64.36
35892;BME280;21993;42.672;23.296;2023-04-01T13:29:38;93328.66;;;16.20;64.26
35892;BME280;21993;42.672;23.296;2023-04-01T13:38:17;93303.59;;;16.29;62.23
35892;BME280;21993;42.672;23.296;2023-04-01T13:43:37;93281.38;;;16.43;58.95
35892;BME280;21993;42.672;23.296;2023-04-01T13:48:58;93282.41;;;16.42;53.32
35892;BME280;21993;42.672;23.296;2023-04-01T13:52:11;93274.28;;;16.24;54.24
35892;BME280;21993;42.672;23.296;2023-04-01T13:57:56;93273.81;;;16.60;52.15
35892;BME280;21993;42.672;23.296;2023-04-01T14:06:27;93231.59;;;16.65;49.86
35892;BME280;21993;42.672;23.296;2023-04-01T14:18:09;93240.09;;;16.87;49.52
35892;BME280;21993;42.672;23.296;2023-04-01T14:22:45;93223.81;;;16.90;50.64
35892;BME280;21993;42.672;23.296;2023-04-01T14:34:44;93204.91;;;17.11;48.04
35892;BME280;21993;42.672;23.296;2023-04-01T14:41:28;93191.34;;;16.95;47.38
35892;BME280;21993;42.672;23.296;2023-04-01T14:51:18;93202.50;;;17.03;47.12
35892;BME280;21993;42.672;23.296;2023-04-01T14:54:16;93203.03;;;17.25;52.61
35892;BME280;21993;42.672;23.296;2023-04-01T14:56:49;93196.91;;;17.25;44.89
35892;BME280;21993;42.672;23.296;2023-04-01T15:01:51;93193.72;;;17.09;44.90
35892;BME280;21993;42.672;23.296;2023-04-01T15:12:34;93217.19;;;17.44;44.82
35892;BME280;21993;42.672;23.296;2023-04-01T15:18:07;93214.81;;;17.61;44.80
35892;BME280;21993;42.672;23.296;2023-04-01T15:31:53;93257.34;;;17.86;53.37
35892;BME280;21993;42.672;23.296;2023-04-01T15:36:57;93246.31;;;17.51;54.71
35892;BME280;21993;42.672;23.296;2023-04-01T15:51:08;93434.41;;;16.81;51.21
35892;BME280;21993;42.672;23.296;2023-04-01T16:00:20;93489.25;;;15.17;56.88
35892;BME280;21993;42.672;23.296;2023-04-01T16:09:03;93503.47;;;14.24;63.27
35892;BME280;21993;42.672;23.296;2023-04-01T16:12:04;93505.56;;;13.92;63.19
35892;BME280;21993;42.672;23.296;2023-04-01T16:20:25;93529.75;;;13.07;65.42
35892;BME280;21993;42.672;23.296;2023-04-01T16:23:04;93537.66;;;13.07;66.22
35892;BME280;21993;42.672;23.296;2023-04-01T16:31:32;93539.56;;;12.99;65.88
35892;BME280;21993;42.672;23.296;2023-04-01T16:36:42;93567.00;;;12.66;65.77
35892;BME280;21993;42.672;23.296;2023-04-01T16:39:30;93566.22;;;12.58;66.36
35892;BME280;21993;42.672;23.296;2023-04-01T16:45:02;93573.66;;;12.54;66.21
35892;BME280;21993;42.672;23.296;2023-04-01T16:47:49;93584.47;;;12.59;66.25
35892;BME280;21993;42.672;23.296;2023-04-01T16:55:18;93573.72;;;12.46;65.96
35892;BME280;21993;42.672;23.296;2023-04-01T16:57:50;93583.50;;;12.37;65.93
35892;BME280;21993;42.672;23.296;2023-04-01T17:00:47;93573.06;;;12.21;66.05
35892;BME280;21993;42.672;23.296;2023-04-01T17:03:38;93583.00;;;12.34;66.06
35892;BME280;21993;42.672;23.296;2023-04-01T17:06:31;93588.56;;;12.08;65.83
35892;BME280;21993;42.672;23.296;2023-04-01T17:14:54;93599.66;;;12.26;65.52
35892;BME280;21993;42.672;23.296;2023-04-01T17:19:56;93617.72;;;11.98;65.15
35892;BME280;21993;42.672;23.296;2023-04-01T17:25:42;93613.34;;;11.82;64.83
35892;BME280;21993;42.672;23.296;2023-04-01T17:28:34;93601.50;;;11.87;65.33
35892;BME280;21993;42.672;23.296;2023-04-01T17:39:15;93609.44;;;11.62;65.39
35892;BME280;21993;42.672;23.296;2023-04-01T17:41:57;93604.03;;;11.64;65.12
35892;BME280;21993;42.672;23.296;2023-04-01T17:44:30;93616.16;;;11.65;64.47
35892;BME280;21993;42.672;23.296;2023-04-01T17:58:00;93631.09;;;11.72;65.64
35892;BME280;21993;42.672;23.296;2023-04-01T18:01:31;93646.56;;;11.59;64.64
35892;BME280;21993;42.672;23.296;2023-04-01T18:06:18;93653.50;;;11.52;64.64
35892;BME280;21993;42.672;23.296;2023-04-01T18:14:07;93678.75;;;11.77;64.92
35892;BME280;21993;42.672;23.296;2023-04-01T18:16:54;93678.13;;;11.51;64.66
35892;BME280;21993;42.672;23.296;2023-04-01T18:22:26;93688.97;;;11.40;65.95
35892;BME280;21993;42.672;23.296;2023-04-01T18:28:24;93687.63;;;11.68;65.82
35892;BME280;21993;42.672;23.296;2023-04-01T18:36:38;93679.63;;;11.53;65.18
35892;BME280;21993;42.672;23.296;2023-04-01T18:44:47;93672.88;;;11.43;64.88
35892;BME280;21993;42.672;23.296;2023-04-01T18:53:19;93680.13;;;11.33;64.12
35892;BME280;21993;42.672;23.296;2023-04-01T18:55:50;93684.06;;;11.45;64.05
35892;BME280;21993;42.672;23.296;2023-04-01T19:05:42;93693.75;;;11.44;63.24
35892;BME280;21993;42.672;23.296;2023-04-01T19:21:32;93735.63;;;11.46;63.25
35892;BME280;21993;42.672;23.296;2023-04-01T19:26:39;93739.41;;;11.19;63.57
35892;BME280;21993;42.672;23.296;2023-04-01T19:29:35;93739.25;;;11.28;62.76
35892;BME280;21993;42.672;23.296;2023-04-01T19:34:59;93744.81;;;11.34;62.39
35892;BME280;21993;42.672;23.296;2023-04-01T19:37:40;93746.78;;;11.40;62.30
35892;BME280;21993;42.672;23.296;2023-04-01T19:40:34;93754.50;;;11.33;62.37
35892;BME280;21993;42.672;23.296;2023-04-01T19:43:30;93756.81;;;11.28;62.27
35892;BME280;21993;42.672;23.296;2023-04-01T19:57:34;93772.41;;;11.38;61.86
35892;BME280;21993;42.672;23.296;2023-04-01T20:00:16;93770.59;;;11.38;61.48
35892;BME280;21993;42.672;23.296;2023-04-01T20:07:51;93749.75;;;11.45;61.19
35892;BME280;21993;42.672;23.296;2023-04-01T20:10:41;93744.97;;;11.32;60.50
35892;BME280;21993;42.672;23.296;2023-04-01T20:13:34;93743.69;;;11.36;60.77
35892;BME280;21993;42.672;23.296;2023-04-01T20:16:04;93754.03;;;11.38;59.98
35892;BME280;21993;42.672;23.296;2023-04-01T20:18:45;93752.88;;;11.48;59.77
35892;BME280;21993;42.672;23.296;2023-04-01T20:23:43;93754.69;;;11.48;59.40
35892;BME280;21993;42.672;23.296;2023-04-01T20:26:12;93759.59;;;11.35;60.09
35892;BME280;21993;42.672;23.296;2023-04-01T20:28:43;93762.09;;;11.44;59.90
35892;BME280;21993;42.672;23.296;2023-04-01T20:31:19;93760.25;;;11.37;59.63
35892;BME280;21993;42.672;23.296;2023-04-01T20:34:14;93766.66;;;11.42;60.14
35892;BME280;21993;42.672;23.296;2023-04-01T20:50:28;93773.56;;;11.27;60.04
35892;BME280;21993;42.672;23.296;2023-04-01T20:53:01;93775.03;;;11.30;59.71
35892;BME280;21993;42.672;23.296;2023-04-01T21:01:04;93774.06;;;11.31;59.07
35892;BME280;21993;42.672;23.296;2023-04-01T21:03:48;93769.25;;;11.10;59.33
35892;BME280;21993;42.672;23.296;2023-04-01T21:11:58;93786.03;;;11.25;58.10
35892;BME280;21993;42.672;23.296;2023-04-01T21:20:04;93790.13;;;11.11;58.72
35892;BME280;21993;42.672;23.296;2023-04-01T21:22:43;93790.28;;;11.26;57.65
35892;BME280;21993;42.672;23.296;2023-04-01T21:28:43;93795.06;;;11.31;57.71
35892;BME280;21993;42.672;23.296;2023-04-01T21:31:08;93791.97;;;11.27;57.54
35892;BME280;21993;42.672;23.296;2023-04-01T21:33:42;93801.50;;;11.36;57.21
35892;BME280;21993;42.672;23.296;2023-04-01T21:39:05;93786.03;;;11.25;56.81
35892;BME280;21993;42.672;23.296;2023-04-01T22:07:21;93807.06;;;11.49;55.84
35892;BME280;21993;42.672;23.296;2023-04-01T22:10:32;93790.00;;;11.45;56.21
35892;BME280;21993;42.672;23.296;2023-04-01T22:20:53;93778.16;;;11.41;55.83
35892;BME280;21993;42.672;23.296;2023-04-01T22:23:26;93781.78;;;11.48;55.64
35892;BME280;21993;42.672;23.296;2023-04-01T22:28:38;93767.34;;;11.61;54.85
35892;BME280;21993;42.672;23.296;2023-04-01T22:31:09;93774.41;;;11.52;55.32
35892;BME280;21993;42.672;23.296;2023-04-01T22:48:23;93792.78;;;11.36;54.94
35892;BME280;21993;42.672;23.296;2023-04-01T22:53:40;93802.78;;;11.40;54.42
35892;BME280;21993;42.672;23.296;2023-04-01T22:56:17;93806.59;;;11.46;54.49
35892;BME280;21993;42.672;23.296;2023-04-01T22:59:00;93813.13;;;11.42;54.42
35892;BME280;21993;42.672;23.296;2023-04-01T23:01:30;93814.63;;;11.44;54.52
35892;BME280;21993;42.672;23.296;2023-04-01T23:03:58;93810.34;;;11.51;54.63
35892;BME280;21993;42.672;23.296;2023-04-01T23:06:28;93821.38;;;11.47;54.24
35892;BME280;21993;42.672;23.296;2023-04-01T23:19:44;93818.38;;;11.42;54.28
35892;BME280;21993;42.672;23.296;2023-04-01T23:24:41;93812.16;;;11.51;54.20
35892;BME280;21993;42.672;23.296;2023-04-01T23:27:20;93812.31;;;11.49;54.03
35892;BME280;21993;42.672;23.296;2023-04-01T23:29:48;93820.69;;;11.37;54.31
35892;BME280;21993;42.672;23.296;2023-04-01T23:32:18;93824.63;;;11.33;54.17
35892;BME280;21993;42.672;23.296;2023-04-01T23:34:49;93818.72;;;11.39;54.46
35892;BME280;21993;42.672;23.296;2023-04-01T23:37:17;93826.44;;;11.40;53.72
35892;BME280;21993;42.672;23.296;2023-04-01T23:39:54;93824.63;;;11.33;54.65
35892;BME280;21993;42.672;23.296;2023-04-01T23:42:24;93821.66;;;11.19;54.33
35892;BME280;21993;42.672;23.296;2023-04-01T23:44:55;93828.53;;;11.12;54.26